DAUH/HME METAR and TAF weather

Enter ICAO airport designator
Station Type Date Time Source
DAUH METAR 2018/12/10 20:00 UTC NOAA

DAUH 102000Z 00000KT CAVOK 11/06 Q1024


Station Type Date Time Source
DAUH Decoded METAR 2018/12/10 20:00 UTC NOAA

Hassi-Messaoud, Algeria (DAUH) 31-40N 006-09E 142M
Dec 10, 2018 - 03:00 PM EST / 2018.12.10 2000 UTC
Wind: Calm:0
Visibility: greater than 7 mile(s):0
Temperature: 51 F (11 C)
Dew Point: 42 F (6 C)
Relative Humidity: 71%
Pressure (altimeter): 30.24 in. Hg (1024 hPa)
ob: DAUH 102000Z 00000KT CAVOK 11/06 Q1024
cycle: 20

Station Type Date Time Source
DAUH TAF 2018/12/10 18:33 UTC NOAA

TAF DAUH 101700Z 1018/1118 VRB02KT CAVOK


Example: see airport list